sensor_id;sensor_type;location;lat;lon;timestamp;temperature;humidity
65038;DHT22;51605;47.040;15.294;2022-09-13T00:00:35;23.50;54.90
65038;DHT22;51605;47.040;15.294;2022-09-13T00:03:01;23.50;54.90
65038;DHT22;51605;47.040;15.294;2022-09-13T00:05:27;23.60;54.90
65038;DHT22;51605;47.040;15.294;2022-09-13T00:07:53;23.50;54.90
65038;DHT22;51605;47.040;15.294;2022-09-13T00:10:19;23.60;54.90
65038;DHT22;51605;47.040;15.294;2022-09-13T00:12:46;23.60;54.90
65038;DHT22;51605;47.040;15.294;2022-09-13T00:15:11;23.60;54.90
65038;DHT22;51605;47.040;15.294;2022-09-13T00:17:37;23.50;54.80
65038;DHT22;51605;47.040;15.294;2022-09-13T00:20:03;23.60;54.90
65038;DHT22;51605;47.040;15.294;2022-09-13T00:22:29;23.60;54.80
65038;DHT22;51605;47.040;15.294;2022-09-13T00:24:55;23.60;54.90
65038;DHT22;51605;47.040;15.294;2022-09-13T00:27:21;23.60;54.90
65038;DHT22;51605;47.040;15.294;2022-09-13T00:29:46;23.60;54.80
65038;DHT22;51605;47.040;15.294;2022-09-13T00:32:12;23.60;54.80
65038;DHT22;51605;47.040;15.294;2022-09-13T00:34:37;23.60;54.90
65038;DHT22;51605;47.040;15.294;2022-09-13T00:37:03;23.60;54.90
65038;DHT22;51605;47.040;15.294;2022-09-13T00:39:29;23.60;55.00
65038;DHT22;51605;47.040;15.294;2022-09-13T00:41:55;23.60;55.00
65038;DHT22;51605;47.040;15.294;2022-09-13T00:47:09;23.50;55.00
65038;DHT22;51605;47.040;15.294;2022-09-13T00:49:37;23.50;55.00
65038;DHT22;51605;47.040;15.294;2022-09-13T00:52:09;23.50;55.00
65038;DHT22;51605;47.040;15.294;2022-09-13T00:54:51;23.50;55.00
65038;DHT22;51605;47.040;15.294;2022-09-13T00:57:19;23.50;55.00
65038;DHT22;51605;47.040;15.294;2022-09-13T01:02:37;23.50;55.00
65038;DHT22;51605;47.040;15.294;2022-09-13T01:05:03;23.50;55.00
65038;DHT22;51605;47.040;15.294;2022-09-13T01:07:29;23.50;55.00
65038;DHT22;51605;47.040;15.294;2022-09-13T01:09:55;23.60;55.00
65038;DHT22;51605;47.040;15.294;2022-09-13T01:15:06;23.60;55.00
65038;DHT22;51605;47.040;15.294;2022-09-13T01:17:32;23.60;54.90
65038;DHT22;51605;47.040;15.294;2022-09-13T01:19:59;23.60;54.90
65038;DHT22;51605;47.040;15.294;2022-09-13T01:25:48;23.60;54.70
65038;DHT22;51605;47.040;15.294;2022-09-13T01:31:18;23.60;54.90
65038;DHT22;51605;47.040;15.294;2022-09-13T01:34:13;23.50;54.90
65038;DHT22;51605;47.040;15.294;2022-09-13T01:36:51;23.50;54.90
65038;DHT22;51605;47.040;15.294;2022-09-13T01:40:04;23.60;55.00
65038;DHT22;51605;47.040;15.294;2022-09-13T01:51:43;23.50;54.90
65038;DHT22;51605;47.040;15.294;2022-09-13T01:56:26;23.50;54.90
65038;DHT22;51605;47.040;15.294;2022-09-13T01:59:09;23.50;54.90
65038;DHT22;51605;47.040;15.294;2022-09-13T02:02:16;23.50;54.90
65038;DHT22;51605;47.040;15.294;2022-09-13T02:04:39;23.50;54.90
65038;DHT22;51605;47.040;15.294;2022-09-13T02:07:18;23.60;54.90
65038;DHT22;51605;47.040;15.294;2022-09-13T02:09:50;23.60;54.80
65038;DHT22;51605;47.040;15.294;2022-09-13T02:12:22;23.60;54.80
65038;DHT22;51605;47.040;15.294;2022-09-13T02:17:59;23.60;54.90
65038;DHT22;51605;47.040;15.294;2022-09-13T02:20:31;23.50;54.90
65038;DHT22;51605;47.040;15.294;2022-09-13T02:23:02;23.60;54.80
65038;DHT22;51605;47.040;15.294;2022-09-13T02:25:32;23.50;54.80
65038;DHT22;51605;47.040;15.294;2022-09-13T02:28:00;23.60;54.90
65038;DHT22;51605;47.040;15.294;2022-09-13T02:30:30;23.50;54.90
65038;DHT22;51605;47.040;15.294;2022-09-13T02:33:10;23.50;54.80
65038;DHT22;51605;47.040;15.294;2022-09-13T02:35:45;23.60;54.90
65038;DHT22;51605;47.040;15.294;2022-09-13T02:38:28;23.60;54.80
65038;DHT22;51605;47.040;15.294;2022-09-13T02:44:10;23.60;54.80
65038;DHT22;51605;47.040;15.294;2022-09-13T02:49:25;23.50;54.80
65038;DHT22;51605;47.040;15.294;2022-09-13T02:52:12;23.60;54.80
65038;DHT22;51605;47.040;15.294;2022-09-13T02:54:58;23.60;55.80
65038;DHT22;51605;47.040;15.294;2022-09-13T03:00:25;23.60;54.90
65038;DHT22;51605;47.040;15.294;2022-09-13T03:02:52;23.50;54.80
65038;DHT22;51605;47.040;15.294;2022-09-13T03:05:19;23.50;54.90
65038;DHT22;51605;47.040;15.294;2022-09-13T03:07:46;23.60;54.80
65038;DHT22;51605;47.040;15.294;2022-09-13T03:10:13;23.60;54.90
65038;DHT22;51605;47.040;15.294;2022-09-13T03:13:02;23.60;54.80
65038;DHT22;51605;47.040;15.294;2022-09-13T03:21:08;23.50;54.80
65038;DHT22;51605;47.040;15.294;2022-09-13T03:23:47;23.50;54.80
65038;DHT22;51605;47.040;15.294;2022-09-13T03:29:36;23.50;54.90
65038;DHT22;51605;47.040;15.294;2022-09-13T03:32:27;23.50;54.80
65038;DHT22;51605;47.040;15.294;2022-09-13T03:35:16;23.50;54.90
65038;DHT22;51605;47.040;15.294;2022-09-13T03:40:16;23.50;54.90
65038;DHT22;51605;47.040;15.294;2022-09-13T03:42:51;23.50;54.90
65038;DHT22;51605;47.040;15.294;2022-09-13T03:45:27;23.50;54.90
65038;DHT22;51605;47.040;15.294;2022-09-13T03:47:54;23.50;54.90
65038;DHT22;51605;47.040;15.294;2022-09-13T03:50:21;23.50;54.90
65038;DHT22;51605;47.040;15.294;2022-09-13T03:52:52;23.50;54.90
65038;DHT22;51605;47.040;15.294;2022-09-13T03:55:21;23.50;55.10
65038;DHT22;51605;47.040;15.294;2022-09-13T03:57:47;23.50;55.40
65038;DHT22;51605;47.040;15.294;2022-09-13T04:00:13;23.50;55.40
65038;DHT22;51605;47.040;15.294;2022-09-13T04:02:39;23.60;55.70
65038;DHT22;51605;47.040;15.294;2022-09-13T04:05:05;23.60;55.60
65038;DHT22;51605;47.040;15.294;2022-09-13T04:07:31;23.60;55.20
65038;DHT22;51605;47.040;15.294;2022-09-13T04:09:57;23.60;55.20
65038;DHT22;51605;47.040;15.294;2022-09-13T04:12:24;23.60;55.20
65038;DHT22;51605;47.040;15.294;2022-09-13T04:14:49;23.60;55.30
65038;DHT22;51605;47.040;15.294;2022-09-13T04:17:15;23.60;55.30
65038;DHT22;51605;47.040;15.294;2022-09-13T04:19:41;23.60;55.30
65038;DHT22;51605;47.040;15.294;2022-09-13T04:22:09;23.70;55.30
65038;DHT22;51605;47.040;15.294;2022-09-13T04:24:34;23.70;55.30
65038;DHT22;51605;47.040;15.294;2022-09-13T04:27:01;23.70;55.20
65038;DHT22;51605;47.040;15.294;2022-09-13T04:29:26;23.80;55.10
65038;DHT22;51605;47.040;15.294;2022-09-13T04:31:53;23.80;55.00
65038;DHT22;51605;47.040;15.294;2022-09-13T04:34:20;23.80;54.80
65038;DHT22;51605;47.040;15.294;2022-09-13T04:36:50;23.80;54.70
65038;DHT22;51605;47.040;15.294;2022-09-13T04:39:17;23.80;54.70
65038;DHT22;51605;47.040;15.294;2022-09-13T04:41:44;23.80;54.70
65038;DHT22;51605;47.040;15.294;2022-09-13T04:44:11;23.80;54.70
65038;DHT22;51605;47.040;15.294;2022-09-13T04:46:37;23.80;54.60
65038;DHT22;51605;47.040;15.294;2022-09-13T04:49:03;23.80;54.70
65038;DHT22;51605;47.040;15.294;2022-09-13T04:51:28;23.80;54.70
65038;DHT22;51605;47.040;15.294;2022-09-13T04:53:55;23.80;54.70
65038;DHT22;51605;47.040;15.294;2022-09-13T04:56:21;23.80;54.60
65038;DHT22;51605;47.040;15.294;2022-09-13T04:58:51;23.80;54.70
65038;DHT22;51605;47.040;15.294;2022-09-13T05:01:17;23.80;54.60
65038;DHT22;51605;47.040;15.294;2022-09-13T05:03:43;23.80;54.80
65038;DHT22;51605;47.040;15.294;2022-09-13T05:06:14;23.80;54.90
65038;DHT22;51605;47.040;15.294;2022-09-13T05:08:42;23.80;55.00
65038;DHT22;51605;47.040;15.294;2022-09-13T05:11:08;23.80;55.00
65038;DHT22;51605;47.040;15.294;2022-09-13T05:13:34;23.80;55.00
65038;DHT22;51605;47.040;15.294;2022-09-13T05:16:03;23.80;55.10
65038;DHT22;51605;47.040;15.294;2022-09-13T05:18:31;23.80;55.00
65038;DHT22;51605;47.040;15.294;2022-09-13T05:20:59;23.80;54.80
65038;DHT22;51605;47.040;15.294;2022-09-13T05:23:26;23.80;54.70
65038;DHT22;51605;47.040;15.294;2022-09-13T05:25:55;23.80;54.60
65038;DHT22;51605;47.040;15.294;2022-09-13T05:28:22;23.80;54.50
65038;DHT22;51605;47.040;15.294;2022-09-13T05:31:15;23.90;54.30
65038;DHT22;51605;47.040;15.294;2022-09-13T05:33:41;23.80;54.30
65038;DHT22;51605;47.040;15.294;2022-09-13T05:36:07;23.80;54.40
65038;DHT22;51605;47.040;15.294;2022-09-13T05:38:33;23.80;54.50
65038;DHT22;51605;47.040;15.294;2022-09-13T05:41:00;23.80;54.30
65038;DHT22;51605;47.040;15.294;2022-09-13T05:43:28;23.80;54.30
65038;DHT22;51605;47.040;15.294;2022-09-13T05:48:29;23.80;54.40
65038;DHT22;51605;47.040;15.294;2022-09-13T05:50:55;23.80;54.30
65038;DHT22;51605;47.040;15.294;2022-09-13T05:53:21;23.80;54.40
65038;DHT22;51605;47.040;15.294;2022-09-13T05:55:46;23.80;54.50
65038;DHT22;51605;47.040;15.294;2022-09-13T05:58:12;23.80;54.40
65038;DHT22;51605;47.040;15.294;2022-09-13T06:00:38;23.80;54.50
65038;DHT22;51605;47.040;15.294;2022-09-13T06:03:03;23.80;55.60
65038;DHT22;51605;47.040;15.294;2022-09-13T06:05:29;23.80;54.70
65038;DHT22;51605;47.040;15.294;2022-09-13T06:07:54;23.80;54.70
65038;DHT22;51605;47.040;15.294;2022-09-13T06:10:20;23.80;54.70
65038;DHT22;51605;47.040;15.294;2022-09-13T06:12:46;23.80;54.60
65038;DHT22;51605;47.040;15.294;2022-09-13T06:15:12;23.90;54.80
65038;DHT22;51605;47.040;15.294;2022-09-13T06:17:38;23.80;54.70
65038;DHT22;51605;47.040;15.294;2022-09-13T06:20:04;23.90;54.70
65038;DHT22;51605;47.040;15.294;2022-09-13T06:22:30;23.90;54.70
65038;DHT22;51605;47.040;15.294;2022-09-13T06:24:58;23.90;54.70
65038;DHT22;51605;47.040;15.294;2022-09-13T06:27:24;23.90;54.80
65038;DHT22;51605;47.040;15.294;2022-09-13T06:29:49;23.90;54.80
65038;DHT22;51605;47.040;15.294;2022-09-13T06:32:15;23.90;54.80
65038;DHT22;51605;47.040;15.294;2022-09-13T06:34:40;23.90;54.80
65038;DHT22;51605;47.040;15.294;2022-09-13T06:37:07;23.90;54.80
65038;DHT22;51605;47.040;15.294;2022-09-13T06:39:32;23.80;54.80
65038;DHT22;51605;47.040;15.294;2022-09-13T06:41:59;23.90;54.80
65038;DHT22;51605;47.040;15.294;2022-09-13T06:44:24;23.90;54.80
65038;DHT22;51605;47.040;15.294;2022-09-13T06:46:50;23.90;54.80
65038;DHT22;51605;47.040;15.294;2022-09-13T06:49:16;23.90;54.90
65038;DHT22;51605;47.040;15.294;2022-09-13T06:51:41;23.90;54.90
65038;DHT22;51605;47.040;15.294;2022-09-13T06:54:07;23.90;54.90
65038;DHT22;51605;47.040;15.294;2022-09-13T06:56:35;23.90;54.90
65038;DHT22;51605;47.040;15.294;2022-09-13T06:59:06;23.90;54.70
65038;DHT22;51605;47.040;15.294;2022-09-13T07:01:39;23.90;54.60
65038;DHT22;51605;47.040;15.294;2022-09-13T07:04:17;23.90;54.70
65038;DHT22;51605;47.040;15.294;2022-09-13T07:06:49;23.90;54.70
65038;DHT22;51605;47.040;15.294;2022-09-13T07:09:19;23.90;54.80
65038;DHT22;51605;47.040;15.294;2022-09-13T07:11:47;23.90;54.80
65038;DHT22;51605;47.040;15.294;2022-09-13T07:14:15;23.90;55.00
65038;DHT22;51605;47.040;15.294;2022-09-13T07:16:42;23.90;55.10
65038;DHT22;51605;47.040;15.294;2022-09-13T07:19:13;23.90;55.10
65038;DHT22;51605;47.040;15.294;2022-09-13T07:21:39;23.80;55.10
65038;DHT22;51605;47.040;15.294;2022-09-13T07:24:05;23.80;55.10
65038;DHT22;51605;47.040;15.294;2022-09-13T07:26:31;23.80;55.00
65038;DHT22;51605;47.040;15.294;2022-09-13T07:28:59;23.90;55.10
65038;DHT22;51605;47.040;15.294;2022-09-13T07:31:33;23.90;55.10
65038;DHT22;51605;47.040;15.294;2022-09-13T07:34:02;23.90;54.90
65038;DHT22;51605;47.040;15.294;2022-09-13T07:36:29;23.90;54.80
65038;DHT22;51605;47.040;15.294;2022-09-13T07:38:55;23.90;54.80
65038;DHT22;51605;47.040;15.294;2022-09-13T07:41:23;23.90;54.90
65038;DHT22;51605;47.040;15.294;2022-09-13T07:43:50;23.90;54.80
65038;DHT22;51605;47.040;15.294;2022-09-13T07:46:20;23.90;54.90
65038;DHT22;51605;47.040;15.294;2022-09-13T07:48:48;23.90;55.10
65038;DHT22;51605;47.040;15.294;2022-09-13T07:51:40;23.90;55.10
65038;DHT22;51605;47.040;15.294;2022-09-13T07:54:13;23.90;55.30
65038;DHT22;51605;47.040;15.294;2022-09-13T07:56:40;23.90;55.10
65038;DHT22;51605;47.040;15.294;2022-09-13T07:59:09;23.90;55.20
65038;DHT22;51605;47.040;15.294;2022-09-13T08:01:56;23.90;55.20
65038;DHT22;51605;47.040;15.294;2022-09-13T08:04:24;23.80;55.20
65038;DHT22;51605;47.040;15.294;2022-09-13T08:06:50;23.90;55.10
65038;DHT22;51605;47.040;15.294;2022-09-13T08:09:16;23.90;55.00
65038;DHT22;51605;47.040;15.294;2022-09-13T08:11:47;23.90;54.90
65038;DHT22;51605;47.040;15.294;2022-09-13T08:14:15;23.90;54.90
65038;DHT22;51605;47.040;15.294;2022-09-13T08:16:41;23.90;54.90
65038;DHT22;51605;47.040;15.294;2022-09-13T08:19:11;23.90;55.00
65038;DHT22;51605;47.040;15.294;2022-09-13T08:21:38;23.90;55.10
65038;DHT22;51605;47.040;15.294;2022-09-13T08:24:06;23.90;55.00
65038;DHT22;51605;47.040;15.294;2022-09-13T08:26:33;23.90;55.10
65038;DHT22;51605;47.040;15.294;2022-09-13T08:29:02;23.90;55.20
65038;DHT22;51605;47.040;15.294;2022-09-13T08:31:29;23.90;55.30
65038;DHT22;51605;47.040;15.294;2022-09-13T08:33:55;23.90;55.30
65038;DHT22;51605;47.040;15.294;2022-09-13T08:36:23;23.90;55.30
65038;DHT22;51605;47.040;15.294;2022-09-13T08:38:55;23.90;55.30
65038;DHT22;51605;47.040;15.294;2022-09-13T08:41:58;23.90;55.50
65038;DHT22;51605;47.040;15.294;2022-09-13T08:44:51;23.90;55.40
65038;DHT22;51605;47.040;15.294;2022-09-13T08:47:30;23.90;55.30
65038;DHT22;51605;47.040;15.294;2022-09-13T08:55:39;23.90;55.40
65038;DHT22;51605;47.040;15.294;2022-09-13T09:00:49;23.90;55.60
65038;DHT22;51605;47.040;15.294;2022-09-13T09:03:40;23.90;55.70
65038;DHT22;51605;47.040;15.294;2022-09-13T09:06:17;23.90;55.90
65038;DHT22;51605;47.040;15.294;2022-09-13T09:08:50;23.90;56.00
65038;DHT22;51605;47.040;15.294;2022-09-13T09:16:39;23.90;55.80
65038;DHT22;51605;47.040;15.294;2022-09-13T09:21:49;23.90;55.80
65038;DHT22;51605;47.040;15.294;2022-09-13T09:24:19;23.90;55.70
65038;DHT22;51605;47.040;15.294;2022-09-13T09:26:45;23.90;55.60
65038;DHT22;51605;47.040;15.294;2022-09-13T09:29:18;23.90;55.60
65038;DHT22;51605;47.040;15.294;2022-09-13T09:37:23;23.90;55.70
65038;DHT22;51605;47.040;15.294;2022-09-13T09:39:52;23.90;55.80
65038;DHT22;51605;47.040;15.294;2022-09-13T09:42:24;23.90;55.70
65038;DHT22;51605;47.040;15.294;2022-09-13T09:45:00;23.90;55.70
65038;DHT22;51605;47.040;15.294;2022-09-13T09:47:45;23.90;55.70
65038;DHT22;51605;47.040;15.294;2022-09-13T09:50:18;23.90;55.90
65038;DHT22;51605;47.040;15.294;2022-09-13T09:53:07;23.90;55.80
65038;DHT22;51605;47.040;15.294;2022-09-13T09:56:01;23.90;55.90
65038;DHT22;51605;47.040;15.294;2022-09-13T09:58:43;23.90;55.80
65038;DHT22;51605;47.040;15.294;2022-09-13T10:06:24;23.90;55.70
65038;DHT22;51605;47.040;15.294;2022-09-13T10:09:01;23.90;55.70
65038;DHT22;51605;47.040;15.294;2022-09-13T10:17:25;23.90;55.60
65038;DHT22;51605;47.040;15.294;2022-09-13T10:20:24;23.90;55.60
65038;DHT22;51605;47.040;15.294;2022-09-13T10:25:39;23.90;55.70
65038;DHT22;51605;47.040;15.294;2022-09-13T10:28:12;23.90;55.50
65038;DHT22;51605;47.040;15.294;2022-09-13T10:30:45;23.80;55.60
65038;DHT22;51605;47.040;15.294;2022-09-13T10:33:27;23.80;55.60
65038;DHT22;51605;47.040;15.294;2022-09-13T10:35:56;23.90;55.50
65038;DHT22;51605;47.040;15.294;2022-09-13T10:38:36;23.90;55.50
65038;DHT22;51605;47.040;15.294;2022-09-13T10:41:08;23.90;55.40
65038;DHT22;51605;47.040;15.294;2022-09-13T10:43:36;23.90;55.40
65038;DHT22;51605;47.040;15.294;2022-09-13T10:46:04;23.80;55.40
65038;DHT22;51605;47.040;15.294;2022-09-13T10:48:44;23.80;55.40
65038;DHT22;51605;47.040;15.294;2022-09-13T10:56:31;23.90;55.40
65038;DHT22;51605;47.040;15.294;2022-09-13T10:59:23;23.90;55.30
65038;DHT22;51605;47.040;15.294;2022-09-13T11:05:12;23.80;55.30
65038;DHT22;51605;47.040;15.294;2022-09-13T11:13:26;23.90;55.50
65038;DHT22;51605;47.040;15.294;2022-09-13T11:24:35;23.90;55.70
65038;DHT22;51605;47.040;15.294;2022-09-13T11:29:46;23.90;55.70
65038;DHT22;51605;47.040;15.294;2022-09-13T11:32:43;23.90;55.70
65038;DHT22;51605;47.040;15.294;2022-09-13T11:40:57;23.90;55.80
65038;DHT22;51605;47.040;15.294;2022-09-13T11:46:09;23.90;55.80
65038;DHT22;51605;47.040;15.294;2022-09-13T11:48:57;23.90;55.90
65038;DHT22;51605;47.040;15.294;2022-09-13T11:52:05;23.90;55.90
65038;DHT22;51605;47.040;15.294;2022-09-13T11:57:41;23.90;55.80
65038;DHT22;51605;47.040;15.294;2022-09-13T12:00:31;23.90;55.90
65038;DHT22;51605;47.040;15.294;2022-09-13T12:03:00;24.00;55.90
65038;DHT22;51605;47.040;15.294;2022-09-13T12:05:50;24.00;55.90
65038;DHT22;51605;47.040;15.294;2022-09-13T12:08:19;24.00;56.00
65038;DHT22;51605;47.040;15.294;2022-09-13T12:10:57;24.00;55.90
65038;DHT22;51605;47.040;15.294;2022-09-13T12:13:35;24.00;56.00
65038;DHT22;51605;47.040;15.294;2022-09-13T12:16:05;24.00;56.00
65038;DHT22;51605;47.040;15.294;2022-09-13T12:18:33;24.00;56.00
65038;DHT22;51605;47.040;15.294;2022-09-13T12:21:07;24.00;56.10
65038;DHT22;51605;47.040;15.294;2022-09-13T12:23:41;24.00;55.90
65038;DHT22;51605;47.040;15.294;2022-09-13T12:28:45;24.00;55.80
65038;DHT22;51605;47.040;15.294;2022-09-13T12:31:21;24.00;55.80
65038;DHT22;51605;47.040;15.294;2022-09-13T12:33:47;23.90;55.80
65038;DHT22;51605;47.040;15.294;2022-09-13T12:52:19;23.80;56.00
65038;DHT22;51605;47.040;15.294;2022-09-13T12:58:09;23.80;55.80
65038;DHT22;51605;47.040;15.294;2022-09-13T13:03:29;23.80;55.90
65038;DHT22;51605;47.040;15.294;2022-09-13T13:08:34;23.80;55.90
65038;DHT22;51605;47.040;15.294;2022-09-13T13:13:36;23.80;56.00
65038;DHT22;51605;47.040;15.294;2022-09-13T13:16:20;23.80;55.90
65038;DHT22;51605;47.040;15.294;2022-09-13T13:18:47;23.80;56.00
65038;DHT22;51605;47.040;15.294;2022-09-13T13:21:49;23.80;57.00
65038;DHT22;51605;47.040;15.294;2022-09-13T13:26:53;23.80;56.00
65038;DHT22;51605;47.040;15.294;2022-09-13T13:29:27;23.80;56.10
65038;DHT22;51605;47.040;15.294;2022-09-13T13:34:34;23.80;56.00
65038;DHT22;51605;47.040;15.294;2022-09-13T13:37:24;23.80;56.00
65038;DHT22;51605;47.040;15.294;2022-09-13T13:40:10;23.80;56.00
65038;DHT22;51605;47.040;15.294;2022-09-13T13:42:37;23.80;56.00
65038;DHT22;51605;47.040;15.294;2022-09-13T13:45:14;23.80;55.90
65038;DHT22;51605;47.040;15.294;2022-09-13T13:47:53;23.80;55.90
65038;DHT22;51605;47.040;15.294;2022-09-13T13:50:19;23.80;55.90
65038;DHT22;51605;47.040;15.294;2022-09-13T13:52:54;23.80;55.80
65038;DHT22;51605;47.040;15.294;2022-09-13T13:58:03;23.80;56.00
65038;DHT22;51605;47.040;15.294;2022-09-13T14:00:33;23.80;55.80
65038;DHT22;51605;47.040;15.294;2022-09-13T14:11:06;23.80;55.90
65038;DHT22;51605;47.040;15.294;2022-09-13T14:19:29;23.80;55.90
65038;DHT22;51605;47.040;15.294;2022-09-13T14:24:42;23.80;55.80
65038;DHT22;51605;47.040;15.294;2022-09-13T14:27:22;23.80;55.90
65038;DHT22;51605;47.040;15.294;2022-09-13T14:30:04;23.80;55.90
65038;DHT22;51605;47.040;15.294;2022-09-13T14:32:41;23.80;55.80
65038;DHT22;51605;47.040;15.294;2022-09-13T14:35:32;23.80;55.70
65038;DHT22;51605;47.040;15.294;2022-09-13T14:40:50;23.80;55.80
65038;DHT22;51605;47.040;15.294;2022-09-13T14:43:19;23.80;55.80
65038;DHT22;51605;47.040;15.294;2022-09-13T14:45:49;23.80;55.70
65038;DHT22;51605;47.040;15.294;2022-09-13T14:48:23;23.80;55.70
65038;DHT22;51605;47.040;15.294;2022-09-13T14:50:59;23.80;55.70
65038;DHT22;51605;47.040;15.294;2022-09-13T14:53:29;23.80;55.70
65038;DHT22;51605;47.040;15.294;2022-09-13T14:56:03;23.80;55.80
65038;DHT22;51605;47.040;15.294;2022-09-13T15:01:10;23.80;55.80
65038;DHT22;51605;47.040;15.294;2022-09-13T15:03:41;23.80;55.70
65038;DHT22;51605;47.040;15.294;2022-09-13T15:06:17;23.80;55.70
65038;DHT22;51605;47.040;15.294;2022-09-13T15:08:46;23.80;55.60
65038;DHT22;51605;47.040;15.294;2022-09-13T15:11:30;23.80;55.70
65038;DHT22;51605;47.040;15.294;2022-09-13T15:19:26;23.80;55.60
65038;DHT22;51605;47.040;15.294;2022-09-13T15:21:53;23.80;55.60
65038;DHT22;51605;47.040;15.294;2022-09-13T15:24:30;23.80;55.60
65038;DHT22;51605;47.040;15.294;2022-09-13T15:27:06;23.80;55.50
65038;DHT22;51605;47.040;15.294;2022-09-13T15:29:32;23.80;55.60
65038;DHT22;51605;47.040;15.294;2022-09-13T15:32:02;23.80;55.60
65038;DHT22;51605;47.040;15.294;2022-09-13T15:34:28;23.80;55.60
65038;DHT22;51605;47.040;15.294;2022-09-13T15:37:09;23.80;55.60
65038;DHT22;51605;47.040;15.294;2022-09-13T15:42:12;23.80;55.70
65038;DHT22;51605;47.040;15.294;2022-09-13T15:44:37;23.80;55.60
65038;DHT22;51605;47.040;15.294;2022-09-13T15:47:15;23.80;55.70
65038;DHT22;51605;47.040;15.294;2022-09-13T15:49:49;23.80;56.60
65038;DHT22;51605;47.040;15.294;2022-09-13T15:52:17;23.80;55.60
65038;DHT22;51605;47.040;15.294;2022-09-13T15:54:46;23.80;55.60
65038;DHT22;51605;47.040;15.294;2022-09-13T15:57:22;23.80;55.70
65038;DHT22;51605;47.040;15.294;2022-09-13T15:59:48;23.80;55.70
65038;DHT22;51605;47.040;15.294;2022-09-13T16:02:27;23.80;55.70
65038;DHT22;51605;47.040;15.294;2022-09-13T16:04:55;23.80;56.70
65038;DHT22;51605;47.040;15.294;2022-09-13T16:07:22;23.80;55.60
65038;DHT22;51605;47.040;15.294;2022-09-13T16:09:49;23.80;55.60
65038;DHT22;51605;47.040;15.294;2022-09-13T16:12:15;23.80;55.70
65038;DHT22;51605;47.040;15.294;2022-09-13T16:14:43;23.80;55.70
65038;DHT22;51605;47.040;15.294;2022-09-13T16:17:19;23.80;55.60
65038;DHT22;51605;47.040;15.294;2022-09-13T16:19:45;23.80;55.60
65038;DHT22;51605;47.040;15.294;2022-09-13T16:22:11;23.90;55.60
65038;DHT22;51605;47.040;15.294;2022-09-13T16:24:37;23.80;55.50
65038;DHT22;51605;47.040;15.294;2022-09-13T16:27:03;23.90;55.40
65038;DHT22;51605;47.040;15.294;2022-09-13T16:29:29;23.90;55.50
65038;DHT22;51605;47.040;15.294;2022-09-13T16:31:55;23.80;55.50
65038;DHT22;51605;47.040;15.294;2022-09-13T16:34:22;23.80;55.50
65038;DHT22;51605;47.040;15.294;2022-09-13T16:36:47;23.80;55.60
65038;DHT22;51605;47.040;15.294;2022-09-13T16:39:13;23.90;55.50
65038;DHT22;51605;47.040;15.294;2022-09-13T16:41:39;23.80;55.40
65038;DHT22;51605;47.040;15.294;2022-09-13T16:44:05;23.80;55.50
65038;DHT22;51605;47.040;15.294;2022-09-13T16:46:31;23.80;55.60
65038;DHT22;51605;47.040;15.294;2022-09-13T16:48:57;23.80;55.60
65038;DHT22;51605;47.040;15.294;2022-09-13T16:51:23;23.80;55.60
65038;DHT22;51605;47.040;15.294;2022-09-13T16:53:50;23.80;55.80
65038;DHT22;51605;47.040;15.294;2022-09-13T16:56:17;23.80;55.70
65038;DHT22;51605;47.040;15.294;2022-09-13T16:58:45;23.80;55.70
65038;DHT22;51605;47.040;15.294;2022-09-13T17:01:17;23.80;55.60
65038;DHT22;51605;47.040;15.294;2022-09-13T17:03:43;23.80;55.60
65038;DHT22;51605;47.040;15.294;2022-09-13T17:06:11;23.80;55.70
65038;DHT22;51605;47.040;15.294;2022-09-13T17:08:39;23.80;55.80
65038;DHT22;51605;47.040;15.294;2022-09-13T17:11:08;23.80;55.80
65038;DHT22;51605;47.040;15.294;2022-09-13T17:13:34;23.80;55.80
65038;DHT22;51605;47.040;15.294;2022-09-13T17:16:00;23.80;55.80
65038;DHT22;51605;47.040;15.294;2022-09-13T17:18:26;23.80;55.70
65038;DHT22;51605;47.040;15.294;2022-09-13T17:20:51;23.80;55.80
65038;DHT22;51605;47.040;15.294;2022-09-13T17:23:17;23.80;55.90
65038;DHT22;51605;47.040;15.294;2022-09-13T17:25:46;23.70;55.80
65038;DHT22;51605;47.040;15.294;2022-09-13T17:28:13;23.80;55.80
65038;DHT22;51605;47.040;15.294;2022-09-13T17:30:39;23.80;55.80
65038;DHT22;51605;47.040;15.294;2022-09-13T17:33:06;23.80;55.80
65038;DHT22;51605;47.040;15.294;2022-09-13T17:35:32;23.80;55.80
65038;DHT22;51605;47.040;15.294;2022-09-13T17:37:58;23.80;55.70
65038;DHT22;51605;47.040;15.294;2022-09-13T17:40:25;23.80;55.60
65038;DHT22;51605;47.040;15.294;2022-09-13T17:42:50;23.80;55.60
65038;DHT22;51605;47.040;15.294;2022-09-13T17:45:17;23.80;55.60
65038;DHT22;51605;47.040;15.294;2022-09-13T17:47:43;23.80;55.70
65038;DHT22;51605;47.040;15.294;2022-09-13T17:50:08;23.80;55.70
65038;DHT22;51605;47.040;15.294;2022-09-13T17:52:34;23.80;55.80
65038;DHT22;51605;47.040;15.294;2022-09-13T17:55:00;23.80;55.80
65038;DHT22;51605;47.040;15.294;2022-09-13T17:57:27;23.70;55.80
65038;DHT22;51605;47.040;15.294;2022-09-13T17:59:52;23.80;55.80
65038;DHT22;51605;47.040;15.294;2022-09-13T18:02:21;23.80;55.80
65038;DHT22;51605;47.040;15.294;2022-09-13T18:04:48;23.80;55.80
65038;DHT22;51605;47.040;15.294;2022-09-13T18:07:15;23.80;55.80
65038;DHT22;51605;47.040;15.294;2022-09-13T18:09:41;23.80;55.80
65038;DHT22;51605;47.040;15.294;2022-09-13T18:12:08;23.80;55.80
65038;DHT22;51605;47.040;15.294;2022-09-13T18:14:33;23.70;55.80
65038;DHT22;51605;47.040;15.294;2022-09-13T18:16:59;23.80;55.70
65038;DHT22;51605;47.040;15.294;2022-09-13T18:19:25;23.80;55.70
65038;DHT22;51605;47.040;15.294;2022-09-13T18:21:52;23.80;55.70
65038;DHT22;51605;47.040;15.294;2022-09-13T18:24:18;23.80;55.70
65038;DHT22;51605;47.040;15.294;2022-09-13T18:26:44;23.80;55.70
65038;DHT22;51605;47.040;15.294;2022-09-13T18:29:12;23.80;55.80
65038;DHT22;51605;47.040;15.294;2022-09-13T18:31:39;23.80;55.80
65038;DHT22;51605;47.040;15.294;2022-09-13T18:34:09;23.80;55.70
65038;DHT22;51605;47.040;15.294;2022-09-13T18:36:35;23.80;55.80
65038;DHT22;51605;47.040;15.294;2022-09-13T18:39:03;23.80;55.90
65038;DHT22;51605;47.040;15.294;2022-09-13T18:41:39;23.80;55.90
65038;DHT22;51605;47.040;15.294;2022-09-13T18:44:05;23.70;56.80
65038;DHT22;51605;47.040;15.294;2022-09-13T18:46:33;23.80;55.90
65038;DHT22;51605;47.040;15.294;2022-09-13T18:48:59;23.70;55.80